Terminal Aerodrome Forecast
Issued by NWS

Home | Current Version | Previous Version | Text Only | Print | Product List | Glossary On
Versions: 1 2 3 4 5 6 7 8 9 10 11 12 13 14 15 16 17 18 19 20 21 22 23 24 25 26 27 28 29 30 31 32 33 34 35 36 37 38 39 40 41 42 43 44 45 46 47 48 49 50
000
FTUS46 KSEW 162321
TAFPAE
TAF
KPAE 162321Z 1700/1724 27007KT P6SM SCT040 BKN250
     FM170900 21007KT P6SM BKN040
     FM171200 18010KT P6SM OVC030
     FM171700 18012G20KT P6SM -RA OVC025
     FM172100 21012KT P6SM -SHRA BKN025 BKN050=

USA.gov is the U.S. government's official web portal to all federal, state and local government web resources and services.